Airfield :







YOU CAN JOIN US ON...

 
LOGIN :

Register | Disclaimer

   EN    FR    IT 

 









Legend :    VFR   Marginal VFR   IFR   Intensive IFR   Very Intensive IFR
Visi :
Ceiling :
>= 8 km
>= 3000ft
5 to 8 km
1000 to 3000 ft
1500m to 5 km
500 to 1000 ft
800 to 1500m
200 to 500 ft
< 800m
< 200 ft
Symbols :   Thunderstorms  Fog  Heavy snow  Heavy precipitations  Wind > 20 kt






- Airport Elevation : 1194 ft


KPSF - Pittsfield Municipal

CURRENT METAR :
  • 251554Z AUTO 08009G16KT 030V110 10SM OVC013 03/M01 A3008 RMK AO2 SLP193 T00331006

EXPIRED METARs :
  • 251454Z AUTO 10008KT 070V130 10SM OVC012 03/M01 A3011 RMK AO2 SLP204 T00281006 58016
  • 251354Z AUTO 08010G16KT 10SM OVC010 02/M02 A3013 RMK AO2 SLP208 T00171017

TAF KPSF
Valid from the 25 at 16:00 until the 26 at 12:00 UTC


251554Z 2516/2612 10010KT P6SM VCSH OVC012 WS020/12040KT
FM252000 09009KT 5SM -RA BR OVC010 WS020/12040KT
TEMPO 2521/2601 2SM -RA BR OVC008
FM260200 26004KT P6SM VCSH OVC010
FM260800 28008KT P6SM BKN015 BKN035



MET'MAP, your aeronautical weather chart ! - Copyright ORBIFLY December 2007 - Disclaimer

ORBIFLY MET'MAP TEAM :

Programming & Development : Alexandra Zaïnal
Concept & original design : Baudouin d'Aumeries
Assistance for programming : Marc-Olivier Méhu
Technical & hardware support : Manuel Goepfert

Contact : metmap@orbifly.com




SOURCES & CREDITS :

   NOAA